Gallatin Field
KBZN : now visible

Airfield :











YOU CAN JOIN US ON...

 
LOGIN :

Register | Disclaimer

   EN    FR    IT 

 









Legend :    VFR   Marginal VFR   IFR   Intensive IFR   Very Intensive IFR
Visi :
Ceiling :
>= 8 km
>= 3000ft
5 to 8 km
1000 to 3000 ft
1500m to 5 km
500 to 1000 ft
800 to 1500m
200 to 500 ft
< 800m
< 200 ft
Symbols :   Thunderstorms  Fog  Heavy snow  Heavy precipitations  Wind > 20 kt







- Airport Elevation : 4473 ft
- IATA code : BZN


KBZN - Gallatin Field

CURRENT METAR :
  • 201956Z 21007KT 5SM -RA BR OVC041 09/07 A2993 RMK AO2 SLP130 P0006 T00890072

EXPIRED METARs :
  • 201856Z 22003KT 5SM -RA BR OVC049 09/07 A2993 RMK AO2 SLP127 P0007 T00890072
  • 201756Z 22003KT 4SM -RA BR OVC049 09/07 A2993 RMK AO2 SLP127 P0003 60004 T00890072 10089 20067 55002

TAF KBZN
Valid from the 20 at 18:00 until the 22 at 00:00 UTC


201744Z 2018/2124 VRB05KT 6SM -RA SCT025 OVC035
TEMPO 2019/2021 5SM -RA BR SCT018 BKN025
FM202100 30010KT 6SM -RA BR SCT018 OVC025
TEMPO 2021/2024 4SM RA BKN018
FM210200 25009KT 6SM BR VCSH SCT025 OVC040
PROB30 2103/2107 5SM -RA BR BKN025
FM210700 VRB05KT 6SM BR SCT025 BKN040
PROB30 2107/2113 5SM -RA BR BKN025
FM211800 VRB06KT P6SM FEW035 SCT060
No reported NOTAMs for that airfield.



MET'MAP, your aeronautical weather chart ! - Copyright ORBIFLY December 2007 - Disclaimer

ORBIFLY MET'MAP TEAM :

Programming & Development : Alexandra Zaïnal
Concept & Development : Baudouin d'Aumeries
Co-Development & Prog : Marc-Olivier Méhu
Technical & hardware support : Manuel Goepfert

Contact : metmap@orbifly.com




SOURCES & CREDITS :

   NOAA       Earth
Advisory